Potomac, Maryland
Current Conditions -  °F | °C
As of 7:15 AM on Monday 26 Jan 2015 (Local Time) from KGAI Reporting Station
Overcast Overcast  
Wind Chill: 21°   Ceiling: 800
Heat Index: 30°   Visibility: 2.5mi
Dew Point: 27°   Wind: 12mph
Humidity: 86%   Direction: 80°E
Pressure: 29.83"   Gusts: 16mph
Location:  39.02°N, 77.21°W
Report Text: KGAI 261215Z 08010G14KT 040V100 2 1/2SM BKN008 OVC017 M01/M03 A2983 RMK AO1
Loading
Personal Weather Stations






























Interactive Weather Map New forecast layout! Learn more

10-Day Weather Forecast

Advertisements
Track Severe Weather on mobile